Nipawin, Canada
Current Conditions -  °F | °C
As of 12:16 AM on Thursday 29 Jan 2015 (Local Time) from CYBU Reporting Station
Light Snow Light Snow  
Wind Chill: -3°   Ceiling: 1700
Heat Index:   Visibility: 9mi
Dew Point:   Wind: 6mph
Humidity: 85%   Direction: 290°WNW
Pressure: 30.43"   Gusts: NA
Location:  53.37°N, 104.02°W
Report Text: CYBU 290616Z AUTO 29005KT 9SM -SN OVC017 M14/M16 A3043 RMK SLP342
Loading
Personal Weather Stations






























Interactive Weather Map New forecast layout! Learn more

10-Day Weather Forecast

Advertisements
Track Severe Weather on mobile